Погода Адиль-Янгиюртна 2 недели

Республика Дагестан, Россия

20 мая-02 июня
  • 20мая
    Сегодня
    +10°
    +25°
    Практически безоблачно
    ВремяПогодаТемператураВлажностьДавлениеВетер, м/сВероятность осадков
    00:00Ясно и безоблачно+12°C81 %762 мм1.7 м/с1 %
    03:00Ясно и безоблачно+11°C88 %762 мм2.3 м/с2 %
    06:00Ясно и безоблачно+13°C76 %762 мм2.5 м/с2 %
    09:00Ясно и безоблачно+19°C53 %762 мм0.9 м/с2 %
    12:00Ясно и безоблачно+23°C35 %762 мм1.0 м/с2 %
    15:00Практически безоблачно+24°C34 %761 мм2.0 м/с5 %
    18:00Практически безоблачно+21°C45 %762 мм1.6 м/с5 %
    21:00Ясно и безоблачно+15°C54 %763 мм2.3 м/с2 %
  • 21мая
    Вторник
    +13°
    +25°
    Ясно и безоблачно
    ВремяПогодаТемператураВлажностьДавлениеВетер, м/сВероятность осадков
    00:00Ясно и безоблачно+13°C71 %763 мм2.4 м/с2 %
    03:00Ясно и безоблачно+10°C85 %763 мм1.7 м/с2 %
    06:00Ясно и безоблачно+14°C70 %764 мм1.8 м/с2 %
    09:00Ясно и безоблачно+20°C45 %765 мм0.0 м/с2 %
    12:00Ясно и безоблачно+24°C33 %764 мм2.1 м/с2 %
    15:00Ясно и безоблачно+25°C27 %764 мм3.0 м/с2 %
    18:00Ясно и безоблачно+21°C40 %764 мм5.4 м/с2 %
    21:00Ясно и безоблачно+15°C54 %765 мм4.3 м/с2 %
  • 22мая
    Среда
    +13°
    +24°
    Небольшая облачность
    ВремяПогодаТемператураВлажностьДавлениеВетер, м/сВероятность осадков
    00:00Ясно и безоблачно+14°C68 %764 мм4.1 м/с2 %
    03:00Облачно с прояснениями+14°C77 %764 мм4.4 м/с2 %
    06:00Облачно с прояснениями+16°C78 %763 мм5.2 м/с2 %
    09:00Практически безоблачно+21°C46 %763 мм7.1 м/с2 %
    12:00Ясно и безоблачно+23°C36 %763 мм8.0 м/с2 %
    15:00Небольшая облачность+23°C38 %762 мм8.2 м/с2 %
    18:00Практически безоблачно+19°C53 %762 мм6.9 м/с2 %
    21:00Ясно и безоблачно+16°C82 %762 мм6.1 м/с2 %
  • 23мая
    Четверг
    +13°
    +25°
    Ясно и безоблачно
    ВремяПогодаТемператураВлажностьДавлениеВетер, м/сВероятность осадков
    00:00Ясно и безоблачно+15°C90 %762 мм5.2 м/с2 %
    03:00Ясно и безоблачно+14°C94 %761 мм4.2 м/с2 %
    06:00Ясно и безоблачно+16°C86 %761 мм3.8 м/с2 %
    09:00Ясно и безоблачно+21°C55 %761 мм4.7 м/с5 %
    12:00Ясно и безоблачно+25°C36 %761 мм5.5 м/с2 %
    15:00Ясно и безоблачно+24°C37 %760 мм5.9 м/с2 %
    18:00Ясно и безоблачно+21°C45 %760 мм4.8 м/с2 %
    21:00Ясно и безоблачно+17°C79 %761 мм3.6 м/с2 %
  • 24мая
    Пятница
    +17°
    +27°
    Практически безоблачно
    ВремяПогодаТемператураВлажностьДавлениеВетер, м/сВероятность осадков
    00:00Практически безоблачно+15°C95 %761 мм3.0 м/с2 %
    03:00Практически безоблачно+15°C96 %761 мм2.2 м/с2 %
    06:00Практически безоблачно+17°C91 %761 мм1.9 м/с2 %
    09:00Ясно и безоблачно+22°C61 %762 мм4.1 м/с6 %
    12:00Ясно и безоблачно+26°C33 %762 мм7.4 м/с12 %
    15:00Практически безоблачно+25°C37 %762 мм8.5 м/с13 %
    18:00Облачно с прояснениями+21°C51 %762 мм7.8 м/с7 %
    21:00Облачно с прояснениями+18°C77 %763 мм7.5 м/с3 %
Мы используем cookies
Соглашаюсь